sensor_id;sensor_type;location;lat;lon;timestamp;P1;durP1;ratioP1;P2;durP2;ratioP2
20322;SDS011;10319;52.206;20.996;2022-07-25T00:00:54;4.97;;;1.90;;
20322;SDS011;10319;52.206;20.996;2022-07-25T00:03:19;6.28;;;1.92;;
20322;SDS011;10319;52.206;20.996;2022-07-25T00:05:44;4.20;;;1.70;;
20322;SDS011;10319;52.206;20.996;2022-07-25T00:08:09;4.95;;;1.80;;
20322;SDS011;10319;52.206;20.996;2022-07-25T00:10:34;5.22;;;1.70;;
20322;SDS011;10319;52.206;20.996;2022-07-25T00:13:00;6.20;;;2.00;;
20322;SDS011;10319;52.206;20.996;2022-07-25T00:15:25;5.25;;;1.80;;
20322;SDS011;10319;52.206;20.996;2022-07-25T00:17:50;7.80;;;1.85;;
20322;SDS011;10319;52.206;20.996;2022-07-25T00:20:15;5.32;;;1.92;;
20322;SDS011;10319;52.206;20.996;2022-07-25T00:22:40;5.70;;;1.80;;
20322;SDS011;10319;52.206;20.996;2022-07-25T00:25:06;6.13;;;1.73;;
20322;SDS011;10319;52.206;20.996;2022-07-25T00:27:31;5.93;;;1.75;;
20322;SDS011;10319;52.206;20.996;2022-07-25T00:29:56;6.85;;;2.00;;
20322;SDS011;10319;52.206;20.996;2022-07-25T00:32:21;5.78;;;1.95;;
20322;SDS011;10319;52.206;20.996;2022-07-25T00:34:47;5.57;;;1.90;;
20322;SDS011;10319;52.206;20.996;2022-07-25T00:37:12;4.95;;;1.85;;
20322;SDS011;10319;52.206;20.996;2022-07-25T00:39:37;5.43;;;1.90;;
20322;SDS011;10319;52.206;20.996;2022-07-25T00:42:02;4.88;;;1.80;;
20322;SDS011;10319;52.206;20.996;2022-07-25T00:44:29;4.32;;;1.67;;
20322;SDS011;10319;52.206;20.996;2022-07-25T00:46:55;5.63;;;1.92;;
20322;SDS011;10319;52.206;20.996;2022-07-25T00:49:20;7.03;;;2.17;;
20322;SDS011;10319;52.206;20.996;2022-07-25T00:51:46;4.82;;;1.88;;
20322;SDS011;10319;52.206;20.996;2022-07-25T00:54:11;5.40;;;1.90;;
20322;SDS011;10319;52.206;20.996;2022-07-25T00:56:37;4.85;;;1.70;;
20322;SDS011;10319;52.206;20.996;2022-07-25T00:59:02;7.70;;;2.17;;
20322;SDS011;10319;52.206;20.996;2022-07-25T01:01:27;6.60;;;2.00;;
20322;SDS011;10319;52.206;20.996;2022-07-25T01:03:53;6.00;;;1.95;;
20322;SDS011;10319;52.206;20.996;2022-07-25T01:06:18;6.95;;;2.05;;
20322;SDS011;10319;52.206;20.996;2022-07-25T01:08:43;5.97;;;1.88;;
20322;SDS011;10319;52.206;20.996;2022-07-25T01:11:09;6.70;;;2.15;;
20322;SDS011;10319;52.206;20.996;2022-07-25T01:13:34;6.90;;;2.20;;
20322;SDS011;10319;52.206;20.996;2022-07-25T01:15:59;6.35;;;1.90;;
20322;SDS011;10319;52.206;20.996;2022-07-25T01:18:24;6.80;;;1.90;;
20322;SDS011;10319;52.206;20.996;2022-07-25T01:20:50;4.88;;;1.75;;
20322;SDS011;10319;52.206;20.996;2022-07-25T01:23:15;5.82;;;1.85;;
20322;SDS011;10319;52.206;20.996;2022-07-25T01:25:40;6.00;;;1.75;;
20322;SDS011;10319;52.206;20.996;2022-07-25T01:28:05;5.97;;;1.92;;
20322;SDS011;10319;52.206;20.996;2022-07-25T01:30:31;6.68;;;2.08;;
20322;SDS011;10319;52.206;20.996;2022-07-25T01:32:56;4.75;;;1.77;;
20322;SDS011;10319;52.206;20.996;2022-07-25T01:35:21;7.10;;;1.98;;
20322;SDS011;10319;52.206;20.996;2022-07-25T01:37:46;5.53;;;1.98;;
20322;SDS011;10319;52.206;20.996;2022-07-25T01:40:12;5.35;;;1.77;;
20322;SDS011;10319;52.206;20.996;2022-07-25T01:42:37;4.70;;;1.80;;
20322;SDS011;10319;52.206;20.996;2022-07-25T01:45:03;5.35;;;2.10;;
20322;SDS011;10319;52.206;20.996;2022-07-25T01:47:28;4.85;;;1.90;;
20322;SDS011;10319;52.206;20.996;2022-07-25T01:49:53;8.30;;;2.28;;
20322;SDS011;10319;52.206;20.996;2022-07-25T01:52:18;6.13;;;2.10;;
20322;SDS011;10319;52.206;20.996;2022-07-25T01:54:44;6.00;;;1.90;;
20322;SDS011;10319;52.206;20.996;2022-07-25T01:57:09;5.93;;;2.00;;
20322;SDS011;10319;52.206;20.996;2022-07-25T01:59:38;7.15;;;2.20;;
20322;SDS011;10319;52.206;20.996;2022-07-25T02:02:04;4.80;;;1.90;;
20322;SDS011;10319;52.206;20.996;2022-07-25T02:04:30;7.03;;;2.13;;
20322;SDS011;10319;52.206;20.996;2022-07-25T02:06:55;5.53;;;2.00;;
20322;SDS011;10319;52.206;20.996;2022-07-25T02:09:20;6.65;;;2.00;;
20322;SDS011;10319;52.206;20.996;2022-07-25T02:11:45;5.10;;;1.90;;
20322;SDS011;10319;52.206;20.996;2022-07-25T02:14:10;8.20;;;2.30;;
20322;SDS011;10319;52.206;20.996;2022-07-25T02:16:36;5.32;;;2.20;;
20322;SDS011;10319;52.206;20.996;2022-07-25T02:19:01;5.38;;;1.90;;
20322;SDS011;10319;52.206;20.996;2022-07-25T02:21:27;3.67;;;1.63;;
20322;SDS011;10319;52.206;20.996;2022-07-25T02:23:53;5.28;;;2.00;;
20322;SDS011;10319;52.206;20.996;2022-07-25T02:26:18;5.90;;;2.13;;
20322;SDS011;10319;52.206;20.996;2022-07-25T02:28:43;5.65;;;2.20;;
20322;SDS011;10319;52.206;20.996;2022-07-25T02:31:08;6.28;;;2.03;;
20322;SDS011;10319;52.206;20.996;2022-07-25T02:33:34;5.88;;;1.92;;
20322;SDS011;10319;52.206;20.996;2022-07-25T02:35:59;6.90;;;2.13;;
20322;SDS011;10319;52.206;20.996;2022-07-25T02:38:24;5.95;;;2.10;;
20322;SDS011;10319;52.206;20.996;2022-07-25T02:40:50;6.32;;;1.98;;
20322;SDS011;10319;52.206;20.996;2022-07-25T02:43:16;5.95;;;1.95;;
20322;SDS011;10319;52.206;20.996;2022-07-25T02:45:42;5.05;;;1.77;;
20322;SDS011;10319;52.206;20.996;2022-07-25T02:48:07;5.50;;;1.95;;
20322;SDS011;10319;52.206;20.996;2022-07-25T02:50:33;5.78;;;1.90;;
20322;SDS011;10319;52.206;20.996;2022-07-25T02:52:58;6.28;;;2.15;;
20322;SDS011;10319;52.206;20.996;2022-07-25T02:55:23;7.05;;;2.50;;
20322;SDS011;10319;52.206;20.996;2022-07-25T02:57:49;6.53;;;2.33;;
20322;SDS011;10319;52.206;20.996;2022-07-25T03:00:14;8.07;;;2.35;;
20322;SDS011;10319;52.206;20.996;2022-07-25T03:02:40;7.85;;;2.30;;
20322;SDS011;10319;52.206;20.996;2022-07-25T03:05:09;10.20;;;2.53;;
20322;SDS011;10319;52.206;20.996;2022-07-25T03:07:35;6.45;;;2.17;;
20322;SDS011;10319;52.206;20.996;2022-07-25T03:10:01;7.82;;;2.20;;
20322;SDS011;10319;52.206;20.996;2022-07-25T03:12:27;6.53;;;2.25;;
20322;SDS011;10319;52.206;20.996;2022-07-25T03:14:52;6.32;;;1.92;;
20322;SDS011;10319;52.206;20.996;2022-07-25T03:17:17;6.82;;;2.20;;
20322;SDS011;10319;52.206;20.996;2022-07-25T03:19:42;6.47;;;2.10;;
20322;SDS011;10319;52.206;20.996;2022-07-25T03:22:07;5.93;;;1.90;;
20322;SDS011;10319;52.206;20.996;2022-07-25T03:24:33;5.60;;;1.92;;
20322;SDS011;10319;52.206;20.996;2022-07-25T03:26:58;5.47;;;2.03;;
20322;SDS011;10319;52.206;20.996;2022-07-25T03:29:23;5.10;;;2.05;;
20322;SDS011;10319;52.206;20.996;2022-07-25T03:31:48;7.63;;;2.40;;
20322;SDS011;10319;52.206;20.996;2022-07-25T03:34:13;6.10;;;2.20;;
20322;SDS011;10319;52.206;20.996;2022-07-25T03:36:39;7.90;;;2.50;;
20322;SDS011;10319;52.206;20.996;2022-07-25T03:39:04;7.20;;;2.40;;
20322;SDS011;10319;52.206;20.996;2022-07-25T03:41:29;5.93;;;2.25;;
20322;SDS011;10319;52.206;20.996;2022-07-25T03:43:54;6.22;;;2.25;;
20322;SDS011;10319;52.206;20.996;2022-07-25T03:46:19;8.60;;;2.65;;
20322;SDS011;10319;52.206;20.996;2022-07-25T03:48:45;7.10;;;2.35;;
20322;SDS011;10319;52.206;20.996;2022-07-25T03:51:10;8.65;;;2.60;;
20322;SDS011;10319;52.206;20.996;2022-07-25T03:53:35;8.40;;;2.45;;
20322;SDS011;10319;52.206;20.996;2022-07-25T03:56:20;7.65;;;2.20;;
20322;SDS011;10319;52.206;20.996;2022-07-25T03:58:46;7.45;;;2.40;;
20322;SDS011;10319;52.206;20.996;2022-07-25T04:01:11;7.35;;;2.60;;
20322;SDS011;10319;52.206;20.996;2022-07-25T04:03:36;7.25;;;2.47;;
20322;SDS011;10319;52.206;20.996;2022-07-25T04:06:02;8.48;;;2.80;;
20322;SDS011;10319;52.206;20.996;2022-07-25T04:08:27;9.57;;;2.78;;
20322;SDS011;10319;52.206;20.996;2022-07-25T04:10:52;8.07;;;2.53;;
20322;SDS011;10319;52.206;20.996;2022-07-25T04:13:17;8.00;;;2.75;;
20322;SDS011;10319;52.206;20.996;2022-07-25T04:15:42;6.28;;;2.45;;
20322;SDS011;10319;52.206;20.996;2022-07-25T04:18:08;7.97;;;2.75;;
20322;SDS011;10319;52.206;20.996;2022-07-25T04:20:33;9.10;;;2.65;;
20322;SDS011;10319;52.206;20.996;2022-07-25T04:23:01;6.30;;;2.20;;
20322;SDS011;10319;52.206;20.996;2022-07-25T04:25:26;7.63;;;2.50;;
20322;SDS011;10319;52.206;20.996;2022-07-25T04:27:51;8.25;;;2.47;;
20322;SDS011;10319;52.206;20.996;2022-07-25T04:30:17;7.30;;;2.35;;
20322;SDS011;10319;52.206;20.996;2022-07-25T04:32:42;8.27;;;2.78;;
20322;SDS011;10319;52.206;20.996;2022-07-25T04:35:08;9.93;;;2.40;;
20322;SDS011;10319;52.206;20.996;2022-07-25T04:37:33;8.07;;;2.40;;
20322;SDS011;10319;52.206;20.996;2022-07-25T04:40:00;8.95;;;2.67;;
20322;SDS011;10319;52.206;20.996;2022-07-25T04:42:25;8.23;;;2.55;;
20322;SDS011;10319;52.206;20.996;2022-07-25T04:44:51;7.18;;;2.28;;
20322;SDS011;10319;52.206;20.996;2022-07-25T04:47:16;7.50;;;2.00;;
20322;SDS011;10319;52.206;20.996;2022-07-25T04:49:42;5.75;;;2.00;;
20322;SDS011;10319;52.206;20.996;2022-07-25T04:52:07;5.20;;;1.88;;
20322;SDS011;10319;52.206;20.996;2022-07-25T04:54:32;6.53;;;2.13;;
20322;SDS011;10319;52.206;20.996;2022-07-25T04:56:57;7.72;;;2.08;;
20322;SDS011;10319;52.206;20.996;2022-07-25T04:59:23;5.18;;;1.98;;
20322;SDS011;10319;52.206;20.996;2022-07-25T05:01:49;5.80;;;1.90;;
20322;SDS011;10319;52.206;20.996;2022-07-25T05:04:14;6.95;;;2.28;;
20322;SDS011;10319;52.206;20.996;2022-07-25T05:06:39;7.15;;;1.98;;
20322;SDS011;10319;52.206;20.996;2022-07-25T05:09:04;7.47;;;2.20;;
20322;SDS011;10319;52.206;20.996;2022-07-25T05:11:29;5.45;;;1.67;;
20322;SDS011;10319;52.206;20.996;2022-07-25T05:13:55;7.53;;;2.30;;
20322;SDS011;10319;52.206;20.996;2022-07-25T05:16:20;6.20;;;1.88;;
20322;SDS011;10319;52.206;20.996;2022-07-25T05:18:45;5.75;;;1.67;;
20322;SDS011;10319;52.206;20.996;2022-07-25T05:21:10;6.32;;;1.70;;
20322;SDS011;10319;52.206;20.996;2022-07-25T05:23:36;3.92;;;1.67;;
20322;SDS011;10319;52.206;20.996;2022-07-25T05:26:01;6.78;;;1.73;;
20322;SDS011;10319;52.206;20.996;2022-07-25T05:28:26;4.97;;;1.55;;
20322;SDS011;10319;52.206;20.996;2022-07-25T05:30:51;5.95;;;1.63;;
20322;SDS011;10319;52.206;20.996;2022-07-25T05:33:16;5.75;;;1.50;;
20322;SDS011;10319;52.206;20.996;2022-07-25T05:35:42;5.45;;;1.60;;
20322;SDS011;10319;52.206;20.996;2022-07-25T05:38:07;5.35;;;1.67;;
20322;SDS011;10319;52.206;20.996;2022-07-25T05:40:32;7.88;;;1.88;;
20322;SDS011;10319;52.206;20.996;2022-07-25T05:42:57;3.90;;;1.40;;
20322;SDS011;10319;52.206;20.996;2022-07-25T05:45:22;6.88;;;1.85;;
20322;SDS011;10319;52.206;20.996;2022-07-25T05:47:48;7.32;;;2.00;;
20322;SDS011;10319;52.206;20.996;2022-07-25T05:50:13;6.50;;;1.63;;
20322;SDS011;10319;52.206;20.996;2022-07-25T05:52:38;8.07;;;2.00;;
20322;SDS011;10319;52.206;20.996;2022-07-25T05:55:03;5.70;;;1.85;;
20322;SDS011;10319;52.206;20.996;2022-07-25T05:57:29;4.32;;;1.55;;
20322;SDS011;10319;52.206;20.996;2022-07-25T05:59:54;6.05;;;1.70;;
20322;SDS011;10319;52.206;20.996;2022-07-25T06:02:19;7.43;;;2.00;;
20322;SDS011;10319;52.206;20.996;2022-07-25T06:04:44;8.18;;;2.15;;
20322;SDS011;10319;52.206;20.996;2022-07-25T06:07:09;7.47;;;2.00;;
20322;SDS011;10319;52.206;20.996;2022-07-25T06:09:35;4.63;;;1.80;;
20322;SDS011;10319;52.206;20.996;2022-07-25T06:12:00;6.82;;;2.00;;
20322;SDS011;10319;52.206;20.996;2022-07-25T06:14:25;6.82;;;1.98;;
20322;SDS011;10319;52.206;20.996;2022-07-25T06:16:50;5.75;;;1.92;;
20322;SDS011;10319;52.206;20.996;2022-07-25T06:19:15;8.43;;;2.28;;
20322;SDS011;10319;52.206;20.996;2022-07-25T06:21:41;7.03;;;2.05;;
20322;SDS011;10319;52.206;20.996;2022-07-25T06:24:06;5.70;;;1.70;;
20322;SDS011;10319;52.206;20.996;2022-07-25T06:26:33;6.40;;;1.88;;
20322;SDS011;10319;52.206;20.996;2022-07-25T06:28:58;6.88;;;2.00;;
20322;SDS011;10319;52.206;20.996;2022-07-25T06:31:23;6.43;;;2.00;;
20322;SDS011;10319;52.206;20.996;2022-07-25T06:33:48;7.97;;;2.30;;
20322;SDS011;10319;52.206;20.996;2022-07-25T06:36:14;6.93;;;1.80;;
20322;SDS011;10319;52.206;20.996;2022-07-25T06:38:39;6.72;;;1.85;;
20322;SDS011;10319;52.206;20.996;2022-07-25T06:41:04;6.00;;;1.90;;
20322;SDS011;10319;52.206;20.996;2022-07-25T06:43:29;6.95;;;1.90;;
20322;SDS011;10319;52.206;20.996;2022-07-25T06:45:54;6.25;;;1.70;;
20322;SDS011;10319;52.206;20.996;2022-07-25T06:48:20;5.50;;;1.70;;
20322;SDS011;10319;52.206;20.996;2022-07-25T06:50:45;5.47;;;1.77;;
20322;SDS011;10319;52.206;20.996;2022-07-25T06:53:10;6.45;;;1.55;;
20322;SDS011;10319;52.206;20.996;2022-07-25T06:55:36;5.70;;;1.60;;
20322;SDS011;10319;52.206;20.996;2022-07-25T06:58:01;6.53;;;1.80;;
20322;SDS011;10319;52.206;20.996;2022-07-25T07:00:26;7.18;;;1.75;;
20322;SDS011;10319;52.206;20.996;2022-07-25T07:02:52;5.28;;;1.70;;
20322;SDS011;10319;52.206;20.996;2022-07-25T07:05:20;7.47;;;1.70;;
20322;SDS011;10319;52.206;20.996;2022-07-25T07:07:45;5.95;;;1.42;;
20322;SDS011;10319;52.206;20.996;2022-07-25T07:10:10;4.22;;;1.60;;
20322;SDS011;10319;52.206;20.996;2022-07-25T07:12:36;4.38;;;1.55;;
20322;SDS011;10319;52.206;20.996;2022-07-25T07:15:01;4.10;;;1.30;;
20322;SDS011;10319;52.206;20.996;2022-07-25T07:17:26;5.78;;;1.83;;
20322;SDS011;10319;52.206;20.996;2022-07-25T07:19:51;4.72;;;1.63;;
20322;SDS011;10319;52.206;20.996;2022-07-25T07:22:16;5.13;;;1.60;;
20322;SDS011;10319;52.206;20.996;2022-07-25T07:24:42;4.95;;;1.50;;
20322;SDS011;10319;52.206;20.996;2022-07-25T07:27:07;4.85;;;1.63;;
20322;SDS011;10319;52.206;20.996;2022-07-25T07:29:32;5.40;;;1.63;;
20322;SDS011;10319;52.206;20.996;2022-07-25T07:31:57;3.90;;;1.50;;
20322;SDS011;10319;52.206;20.996;2022-07-25T07:34:23;4.68;;;1.60;;
20322;SDS011;10319;52.206;20.996;2022-07-25T07:36:48;5.05;;;1.52;;
20322;SDS011;10319;52.206;20.996;2022-07-25T07:39:13;3.25;;;1.33;;
20322;SDS011;10319;52.206;20.996;2022-07-25T07:41:40;3.50;;;1.25;;
20322;SDS011;10319;52.206;20.996;2022-07-25T07:44:05;5.30;;;1.40;;
20322;SDS011;10319;52.206;20.996;2022-07-25T07:46:30;4.03;;;1.52;;
20322;SDS011;10319;52.206;20.996;2022-07-25T07:48:56;3.65;;;1.50;;
20322;SDS011;10319;52.206;20.996;2022-07-25T07:51:21;5.20;;;1.60;;
20322;SDS011;10319;52.206;20.996;2022-07-25T07:53:46;7.07;;;1.80;;
20322;SDS011;10319;52.206;20.996;2022-07-25T07:56:30;5.40;;;1.50;;
20322;SDS011;10319;52.206;20.996;2022-07-25T07:58:55;3.45;;;1.35;;
20322;SDS011;10319;52.206;20.996;2022-07-25T08:01:20;6.88;;;1.70;;
20322;SDS011;10319;52.206;20.996;2022-07-25T08:03:45;2.58;;;1.30;;
20322;SDS011;10319;52.206;20.996;2022-07-25T08:06:11;3.85;;;1.23;;
20322;SDS011;10319;52.206;20.996;2022-07-25T08:08:36;3.72;;;1.30;;
20322;SDS011;10319;52.206;20.996;2022-07-25T08:11:01;6.25;;;1.58;;
20322;SDS011;10319;52.206;20.996;2022-07-25T08:13:27;3.67;;;1.23;;
20322;SDS011;10319;52.206;20.996;2022-07-25T08:15:54;3.67;;;1.38;;
20322;SDS011;10319;52.206;20.996;2022-07-25T08:18:21;4.45;;;1.20;;
20322;SDS011;10319;52.206;20.996;2022-07-25T08:20:47;5.25;;;1.48;;
20322;SDS011;10319;52.206;20.996;2022-07-25T08:23:13;4.22;;;1.30;;
20322;SDS011;10319;52.206;20.996;2022-07-25T08:25:38;3.38;;;1.20;;
20322;SDS011;10319;52.206;20.996;2022-07-25T08:28:04;4.82;;;1.55;;
20322;SDS011;10319;52.206;20.996;2022-07-25T08:30:30;3.33;;;1.35;;
20322;SDS011;10319;52.206;20.996;2022-07-25T08:32:57;4.75;;;1.30;;
20322;SDS011;10319;52.206;20.996;2022-07-25T08:35:24;3.97;;;1.38;;
20322;SDS011;10319;52.206;20.996;2022-07-25T08:37:50;3.85;;;1.40;;
20322;SDS011;10319;52.206;20.996;2022-07-25T08:40:17;5.65;;;1.60;;
20322;SDS011;10319;52.206;20.996;2022-07-25T08:42:42;6.53;;;1.48;;
20322;SDS011;10319;52.206;20.996;2022-07-25T08:45:08;6.10;;;1.52;;
20322;SDS011;10319;52.206;20.996;2022-07-25T08:47:34;3.78;;;1.40;;
20322;SDS011;10319;52.206;20.996;2022-07-25T08:50:01;4.32;;;1.58;;
20322;SDS011;10319;52.206;20.996;2022-07-25T08:52:26;4.00;;;1.27;;
20322;SDS011;10319;52.206;20.996;2022-07-25T08:54:51;6.72;;;1.48;;
20322;SDS011;10319;52.206;20.996;2022-07-25T08:57:17;3.53;;;1.23;;
20322;SDS011;10319;52.206;20.996;2022-07-25T08:59:42;4.47;;;1.30;;
20322;SDS011;10319;52.206;20.996;2022-07-25T09:02:11;4.60;;;1.40;;
20322;SDS011;10319;52.206;20.996;2022-07-25T09:04:36;4.13;;;1.50;;
20322;SDS011;10319;52.206;20.996;2022-07-25T09:07:02;4.35;;;1.40;;
20322;SDS011;10319;52.206;20.996;2022-07-25T09:09:37;3.28;;;1.20;;
20322;SDS011;10319;52.206;20.996;2022-07-25T09:12:03;5.32;;;1.33;;
20322;SDS011;10319;52.206;20.996;2022-07-25T09:14:29;4.13;;;1.42;;
20322;SDS011;10319;52.206;20.996;2022-07-25T09:16:55;7.20;;;1.50;;
20322;SDS011;10319;52.206;20.996;2022-07-25T09:19:21;3.58;;;1.25;;
20322;SDS011;10319;52.206;20.996;2022-07-25T09:21:57;4.20;;;1.38;;
20322;SDS011;10319;52.206;20.996;2022-07-25T09:24:22;4.28;;;1.30;;
20322;SDS011;10319;52.206;20.996;2022-07-25T09:26:49;4.07;;;1.60;;
20322;SDS011;10319;52.206;20.996;2022-07-25T09:29:15;4.60;;;1.23;;
20322;SDS011;10319;52.206;20.996;2022-07-25T09:31:41;3.38;;;1.23;;
20322;SDS011;10319;52.206;20.996;2022-07-25T09:34:07;4.07;;;1.17;;
20322;SDS011;10319;52.206;20.996;2022-07-25T09:36:33;3.53;;;1.30;;
20322;SDS011;10319;52.206;20.996;2022-07-25T09:39:00;4.82;;;1.20;;
20322;SDS011;10319;52.206;20.996;2022-07-25T09:41:39;3.65;;;1.48;;
20322;SDS011;10319;52.206;20.996;2022-07-25T09:44:22;4.28;;;1.10;;
20322;SDS011;10319;52.206;20.996;2022-07-25T09:46:48;5.20;;;1.50;;
20322;SDS011;10319;52.206;20.996;2022-07-25T09:49:13;4.00;;;1.27;;
20322;SDS011;10319;52.206;20.996;2022-07-25T09:51:38;3.50;;;1.30;;
20322;SDS011;10319;52.206;20.996;2022-07-25T09:54:04;5.47;;;1.60;;
20322;SDS011;10319;52.206;20.996;2022-07-25T09:56:30;5.68;;;1.52;;
20322;SDS011;10319;52.206;20.996;2022-07-25T09:58:56;3.85;;;1.15;;
20322;SDS011;10319;52.206;20.996;2022-07-25T10:01:27;4.47;;;1.35;;
20322;SDS011;10319;52.206;20.996;2022-07-25T10:06:37;4.57;;;1.50;;
20322;SDS011;10319;52.206;20.996;2022-07-25T10:09:08;3.78;;;1.38;;
20322;SDS011;10319;52.206;20.996;2022-07-25T10:11:34;3.30;;;1.20;;
20322;SDS011;10319;52.206;20.996;2022-07-25T10:14:07;3.47;;;1.42;;
20322;SDS011;10319;52.206;20.996;2022-07-25T10:16:32;3.72;;;1.40;;
20322;SDS011;10319;52.206;20.996;2022-07-25T10:19:08;5.80;;;1.58;;
20322;SDS011;10319;52.206;20.996;2022-07-25T10:21:33;5.28;;;1.50;;
20322;SDS011;10319;52.206;20.996;2022-07-25T10:26:27;5.70;;;1.50;;
20322;SDS011;10319;52.206;20.996;2022-07-25T10:28:53;2.45;;;1.15;;
20322;SDS011;10319;52.206;20.996;2022-07-25T10:31:23;4.57;;;1.40;;
20322;SDS011;10319;52.206;20.996;2022-07-25T10:33:52;3.35;;;1.02;;
20322;SDS011;10319;52.206;20.996;2022-07-25T10:36:18;2.60;;;1.20;;
20322;SDS011;10319;52.206;20.996;2022-07-25T10:38:44;4.05;;;1.40;;
20322;SDS011;10319;52.206;20.996;2022-07-25T10:41:14;3.15;;;1.00;;
20322;SDS011;10319;52.206;20.996;2022-07-25T10:43:42;3.13;;;1.30;;
20322;SDS011;10319;52.206;20.996;2022-07-25T10:46:16;3.45;;;1.25;;
20322;SDS011;10319;52.206;20.996;2022-07-25T10:48:42;4.53;;;1.38;;
20322;SDS011;10319;52.206;20.996;2022-07-25T10:51:08;3.42;;;1.25;;
20322;SDS011;10319;52.206;20.996;2022-07-25T10:56:35;2.92;;;1.10;;
20322;SDS011;10319;52.206;20.996;2022-07-25T11:01:20;3.27;;;1.20;;
20322;SDS011;10319;52.206;20.996;2022-07-25T11:03:45;3.15;;;1.17;;
20322;SDS011;10319;52.206;20.996;2022-07-25T11:06:11;4.75;;;1.10;;
20322;SDS011;10319;52.206;20.996;2022-07-25T11:08:37;2.88;;;1.10;;
20322;SDS011;10319;52.206;20.996;2022-07-25T11:11:02;4.18;;;1.38;;
20322;SDS011;10319;52.206;20.996;2022-07-25T11:13:27;5.95;;;1.20;;
20322;SDS011;10319;52.206;20.996;2022-07-25T11:15:56;3.67;;;1.20;;
20322;SDS011;10319;52.206;20.996;2022-07-25T11:18:38;3.55;;;1.27;;
20322;SDS011;10319;52.206;20.996;2022-07-25T11:21:05;2.78;;;1.30;;
20322;SDS011;10319;52.206;20.996;2022-07-25T11:23:31;3.50;;;1.40;;
20322;SDS011;10319;52.206;20.996;2022-07-25T11:26:03;5.03;;;1.30;;
20322;SDS011;10319;52.206;20.996;2022-07-25T11:28:38;2.40;;;1.08;;
20322;SDS011;10319;52.206;20.996;2022-07-25T11:31:03;3.60;;;1.25;;
20322;SDS011;10319;52.206;20.996;2022-07-25T11:33:29;5.47;;;1.40;;
20322;SDS011;10319;52.206;20.996;2022-07-25T11:35:54;3.25;;;1.00;;
20322;SDS011;10319;52.206;20.996;2022-07-25T11:38:23;3.53;;;1.25;;
20322;SDS011;10319;52.206;20.996;2022-07-25T11:40:49;2.20;;;0.82;;
20322;SDS011;10319;52.206;20.996;2022-07-25T11:43:21;5.10;;;1.07;;
20322;SDS011;10319;52.206;20.996;2022-07-25T11:45:54;2.33;;;0.95;;
20322;SDS011;10319;52.206;20.996;2022-07-25T11:48:20;1.70;;;0.93;;
20322;SDS011;10319;52.206;20.996;2022-07-25T11:50:46;3.30;;;1.00;;
20322;SDS011;10319;52.206;20.996;2022-07-25T11:53:12;3.30;;;1.30;;
20322;SDS011;10319;52.206;20.996;2022-07-25T11:55:38;3.50;;;1.25;;
20322;SDS011;10319;52.206;20.996;2022-07-25T11:58:04;2.05;;;1.10;;
20322;SDS011;10319;52.206;20.996;2022-07-25T12:00:33;3.90;;;1.15;;
20322;SDS011;10319;52.206;20.996;2022-07-25T12:03:11;3.30;;;1.02;;
20322;SDS011;10319;52.206;20.996;2022-07-25T12:05:36;2.13;;;0.90;;
20322;SDS011;10319;52.206;20.996;2022-07-25T12:08:09;5.15;;;1.05;;
20322;SDS011;10319;52.206;20.996;2022-07-25T12:10:35;2.10;;;1.08;;
20322;SDS011;10319;52.206;20.996;2022-07-25T12:13:01;4.32;;;1.35;;
20322;SDS011;10319;52.206;20.996;2022-07-25T12:15:37;4.20;;;1.00;;
20322;SDS011;10319;52.206;20.996;2022-07-25T12:18:03;5.10;;;1.20;;
20322;SDS011;10319;52.206;20.996;2022-07-25T12:22:54;3.97;;;1.27;;
20322;SDS011;10319;52.206;20.996;2022-07-25T12:25:20;4.60;;;1.10;;
20322;SDS011;10319;52.206;20.996;2022-07-25T12:27:45;2.85;;;1.02;;
20322;SDS011;10319;52.206;20.996;2022-07-25T12:30:11;4.03;;;0.98;;
20322;SDS011;10319;52.206;20.996;2022-07-25T12:32:37;2.60;;;0.95;;
20322;SDS011;10319;52.206;20.996;2022-07-25T12:35:03;4.95;;;1.02;;
20322;SDS011;10319;52.206;20.996;2022-07-25T12:37:29;3.30;;;1.10;;
20322;SDS011;10319;52.206;20.996;2022-07-25T12:39:54;1.98;;;1.02;;
20322;SDS011;10319;52.206;20.996;2022-07-25T12:42:19;1.98;;;0.90;;
20322;SDS011;10319;52.206;20.996;2022-07-25T12:44:45;5.30;;;1.25;;
20322;SDS011;10319;52.206;20.996;2022-07-25T12:47:10;2.30;;;1.00;;
20322;SDS011;10319;52.206;20.996;2022-07-25T12:49:35;3.60;;;1.03;;
20322;SDS011;10319;52.206;20.996;2022-07-25T12:52:00;4.68;;;1.25;;
20322;SDS011;10319;52.206;20.996;2022-07-25T12:54:25;1.73;;;0.70;;
20322;SDS011;10319;52.206;20.996;2022-07-25T12:56:51;2.63;;;1.08;;
20322;SDS011;10319;52.206;20.996;2022-07-25T12:59:16;4.30;;;1.13;;
20322;SDS011;10319;52.206;20.996;2022-07-25T13:01:41;3.63;;;1.02;;
20322;SDS011;10319;52.206;20.996;2022-07-25T13:04:06;3.05;;;1.08;;
20322;SDS011;10319;52.206;20.996;2022-07-25T13:06:33;4.13;;;1.10;;
20322;SDS011;10319;52.206;20.996;2022-07-25T13:08:58;1.73;;;0.73;;
20322;SDS011;10319;52.206;20.996;2022-07-25T13:11:23;3.90;;;1.27;;
20322;SDS011;10319;52.206;20.996;2022-07-25T13:13:49;3.90;;;1.00;;
20322;SDS011;10319;52.206;20.996;2022-07-25T13:16:14;2.95;;;0.90;;
20322;SDS011;10319;52.206;20.996;2022-07-25T13:18:39;3.75;;;0.90;;
20322;SDS011;10319;52.206;20.996;2022-07-25T13:21:04;3.77;;;1.10;;
20322;SDS011;10319;52.206;20.996;2022-07-25T13:23:29;6.32;;;1.00;;
20322;SDS011;10319;52.206;20.996;2022-07-25T13:25:55;4.70;;;1.03;;
20322;SDS011;10319;52.206;20.996;2022-07-25T13:28:20;3.70;;;1.00;;
20322;SDS011;10319;52.206;20.996;2022-07-25T13:30:45;3.33;;;0.80;;
20322;SDS011;10319;52.206;20.996;2022-07-25T13:33:11;2.28;;;0.88;;
20322;SDS011;10319;52.206;20.996;2022-07-25T13:35:36;4.55;;;1.10;;
20322;SDS011;10319;52.206;20.996;2022-07-25T13:38:02;2.58;;;0.90;;
20322;SDS011;10319;52.206;20.996;2022-07-25T13:40:27;2.15;;;0.93;;
20322;SDS011;10319;52.206;20.996;2022-07-25T13:42:52;1.90;;;0.90;;
20322;SDS011;10319;52.206;20.996;2022-07-25T13:45:18;4.93;;;0.97;;
20322;SDS011;10319;52.206;20.996;2022-07-25T13:47:43;3.13;;;0.80;;
20322;SDS011;10319;52.206;20.996;2022-07-25T13:50:08;4.27;;;1.03;;
20322;SDS011;10319;52.206;20.996;2022-07-25T13:52:33;3.13;;;1.05;;
20322;SDS011;10319;52.206;20.996;2022-07-25T13:54:58;3.30;;;1.07;;
20322;SDS011;10319;52.206;20.996;2022-07-25T13:57:24;3.97;;;1.10;;
20322;SDS011;10319;52.206;20.996;2022-07-25T13:59:49;2.65;;;1.00;;
20322;SDS011;10319;52.206;20.996;2022-07-25T14:02:14;3.13;;;0.90;;
20322;SDS011;10319;52.206;20.996;2022-07-25T14:04:39;3.40;;;0.93;;
20322;SDS011;10319;52.206;20.996;2022-07-25T14:07:05;3.67;;;0.95;;
20322;SDS011;10319;52.206;20.996;2022-07-25T14:09:30;1.50;;;0.77;;
20322;SDS011;10319;52.206;20.996;2022-07-25T14:11:55;4.00;;;0.93;;
20322;SDS011;10319;52.206;20.996;2022-07-25T14:14:22;2.83;;;0.98;;
20322;SDS011;10319;52.206;20.996;2022-07-25T14:16:47;2.55;;;0.95;;
20322;SDS011;10319;52.206;20.996;2022-07-25T14:19:12;2.55;;;0.85;;
20322;SDS011;10319;52.206;20.996;2022-07-25T14:21:38;3.00;;;0.80;;
20322;SDS011;10319;52.206;20.996;2022-07-25T14:24:04;2.90;;;0.77;;
20322;SDS011;10319;52.206;20.996;2022-07-25T14:26:29;1.73;;;0.70;;
20322;SDS011;10319;52.206;20.996;2022-07-25T14:28:55;3.60;;;0.77;;
20322;SDS011;10319;52.206;20.996;2022-07-25T14:31:20;3.80;;;1.00;;
20322;SDS011;10319;52.206;20.996;2022-07-25T14:33:46;4.50;;;1.23;;
20322;SDS011;10319;52.206;20.996;2022-07-25T14:36:11;5.38;;;1.02;;
20322;SDS011;10319;52.206;20.996;2022-07-25T14:38:36;2.22;;;0.80;;